createdAt,value
2023-02-15T00:01:37.347Z,3.90
2023-02-15T00:04:05.584Z,3.80
2023-02-15T00:06:33.247Z,3.80
2023-02-15T00:09:00.372Z,3.80
2023-02-15T00:11:51.226Z,3.80
2023-02-15T00:14:23.339Z,3.80
2023-02-15T00:16:51.851Z,3.70
2023-02-15T00:19:20.532Z,3.70
2023-02-15T00:21:48.585Z,3.70
2023-02-15T00:24:19.930Z,3.70
2023-02-15T00:26:47.617Z,3.70
2023-02-15T00:29:15.609Z,3.60
2023-02-15T00:31:42.878Z,3.70
2023-02-15T00:34:14.074Z,3.70
2023-02-15T00:36:41.103Z,3.60
2023-02-15T00:39:08.248Z,3.60
2023-02-15T00:41:35.379Z,3.50
2023-02-15T00:44:02.358Z,3.50
2023-02-15T00:46:29.438Z,3.50
2023-02-15T00:48:56.494Z,3.50
2023-02-15T00:51:23.497Z,3.40
2023-02-15T00:53:50.743Z,3.40
2023-02-15T00:56:17.859Z,3.40
2023-02-15T00:58:44.829Z,3.40
2023-02-15T01:01:17.166Z,3.40
2023-02-15T01:03:44.240Z,3.30
2023-02-15T01:06:12.056Z,3.40
2023-02-15T01:08:39.391Z,3.30
2023-02-15T01:11:11.869Z,3.30
2023-02-15T01:13:38.888Z,3.40
2023-02-15T01:16:06.057Z,3.40
2023-02-15T01:18:33.536Z,3.40
2023-02-15T01:21:00.702Z,3.30
2023-02-15T01:23:27.604Z,3.30
2023-02-15T01:25:54.585Z,3.20
2023-02-15T01:28:21.526Z,3.20
2023-02-15T01:30:50.853Z,3.20
2023-02-15T01:33:19.158Z,3.10
2023-02-15T01:35:47.286Z,3.10
2023-02-15T01:38:15.098Z,3.10
2023-02-15T01:40:42.611Z,3.00
2023-02-15T01:43:13.213Z,3.00
2023-02-15T01:45:40.808Z,2.90
2023-02-15T01:48:13.548Z,2.90
2023-02-15T01:50:45.661Z,2.90
2023-02-15T01:53:18.951Z,2.90
2023-02-15T01:55:53.780Z,2.90
2023-02-15T01:58:21.101Z,3.00
2023-02-15T02:04:10.783Z,3.00
2023-02-15T02:06:38.981Z,3.00
2023-02-15T02:09:06.111Z,3.00
2023-02-15T02:11:33.074Z,2.90
2023-02-15T02:13:59.992Z,2.90
2023-02-15T02:16:33.653Z,2.90
2023-02-15T02:19:12.313Z,2.80
2023-02-15T02:22:16.819Z,2.80
2023-02-15T02:25:08.481Z,2.80
2023-02-15T02:28:12.957Z,2.80
2023-02-15T02:30:56.488Z,2.80
2023-02-15T02:33:38.736Z,2.80
2023-02-15T02:36:50.444Z,2.80
2023-02-15T02:39:29.367Z,2.90
2023-02-15T02:42:19.022Z,2.80
2023-02-15T02:44:49.312Z,2.80
2023-02-15T02:47:29.112Z,2.70
2023-02-15T02:50:16.699Z,2.70
2023-02-15T02:52:46.765Z,2.70
2023-02-15T02:55:30.840Z,2.70
2023-02-15T02:58:03.630Z,2.70
2023-02-15T03:00:32.911Z,2.70
2023-02-15T03:03:30.581Z,2.60
2023-02-15T03:06:00.992Z,2.50
2023-02-15T03:08:33.196Z,2.60
2023-02-15T03:11:01.763Z,2.50
2023-02-15T03:13:29.078Z,2.40
2023-02-15T03:16:14.467Z,2.40
2023-02-15T03:18:53.818Z,2.40
2023-02-15T03:21:25.522Z,2.40
2023-02-15T03:24:06.846Z,2.50
2023-02-15T03:26:34.778Z,2.50
2023-02-15T03:29:02.055Z,2.40
2023-02-15T03:31:33.386Z,2.30
2023-02-15T03:34:06.128Z,2.20
2023-02-15T03:36:59.554Z,2.20
2023-02-15T03:39:46.964Z,2.10
2023-02-15T03:42:20.783Z,2.10
2023-02-15T03:45:00.803Z,2.10
2023-02-15T03:47:30.861Z,2.10
2023-02-15T03:50:32.015Z,2.10
2023-02-15T03:52:59.759Z,2.10
2023-02-15T03:55:27.239Z,2.00
2023-02-15T03:58:12.776Z,2.10
2023-02-15T04:01:00.265Z,2.10
2023-02-15T04:03:39.601Z,2.20
2023-02-15T04:06:06.615Z,2.10
2023-02-15T04:08:51.943Z,2.20
2023-02-15T04:11:18.839Z,2.20
2023-02-15T04:13:45.751Z,2.20
2023-02-15T04:16:12.739Z,2.20
2023-02-15T04:19:00.795Z,2.10
2023-02-15T04:21:48.239Z,2.10
2023-02-15T04:24:34.252Z,2.20
2023-02-15T04:27:01.460Z,2.10
2023-02-15T04:29:29.085Z,2.20
2023-02-15T04:31:59.259Z,2.20
2023-02-15T04:34:26.465Z,2.20
2023-02-15T04:36:53.376Z,2.30
2023-02-15T04:39:20.412Z,2.30
2023-02-15T04:41:48.904Z,2.20
2023-02-15T04:44:15.865Z,2.10
2023-02-15T06:03:34.402Z,1.60
2023-02-15T06:06:01.858Z,1.70
2023-02-15T06:08:29.120Z,1.70
2023-02-15T06:10:56.055Z,1.80
2023-02-15T06:13:22.968Z,1.80
2023-02-15T06:15:50.033Z,1.90
2023-02-15T06:18:17.677Z,1.80
2023-02-15T06:20:46.880Z,1.90
2023-02-15T06:23:13.959Z,1.90
2023-02-15T06:25:40.924Z,1.80
2023-02-15T06:28:07.936Z,1.80
2023-02-15T06:30:34.908Z,1.70
2023-02-15T06:33:01.908Z,1.70
2023-02-15T06:35:29.096Z,1.60
2023-02-15T06:37:56.002Z,1.60
2023-02-15T06:40:22.972Z,1.60
2023-02-15T06:42:49.956Z,1.50
2023-02-15T06:45:16.988Z,1.50
2023-02-15T06:47:43.899Z,1.60
2023-02-15T06:50:11.780Z,1.50
2023-02-15T06:52:38.704Z,1.50
2023-02-15T06:55:06.205Z,1.50
2023-02-15T06:57:34.241Z,1.50
2023-02-15T07:00:01.290Z,1.40
2023-02-15T07:02:28.641Z,1.40
2023-02-15T07:04:55.654Z,1.40
2023-02-15T07:07:22.688Z,1.40
2023-02-15T07:09:49.627Z,1.40
2023-02-15T07:12:35.220Z,1.40
2023-02-15T07:15:02.629Z,1.50
2023-02-15T07:17:37.069Z,1.50
2023-02-15T07:20:11.708Z,1.60
2023-02-15T07:22:38.756Z,1.70
2023-02-15T07:25:07.398Z,1.70
2023-02-15T07:27:34.355Z,1.70
2023-02-15T07:30:01.599Z,1.70
2023-02-15T07:32:30.632Z,1.60
2023-02-15T07:34:58.044Z,1.60
2023-02-15T07:37:25.408Z,1.60
2023-02-15T07:39:52.322Z,1.70
2023-02-15T07:42:20.878Z,1.70
2023-02-15T07:44:48.546Z,1.70
2023-02-15T07:47:15.599Z,1.70
2023-02-15T07:49:42.781Z,1.70
2023-02-15T07:52:09.712Z,1.70
2023-02-15T07:54:36.636Z,1.80
2023-02-15T07:57:03.573Z,1.80
2023-02-15T07:59:30.505Z,1.90
2023-02-15T08:01:58.671Z,1.90
2023-02-15T08:04:25.676Z,2.00
2023-02-15T08:06:56.011Z,2.10
2023-02-15T08:09:23.240Z,2.10
2023-02-15T08:11:50.148Z,2.10
2023-02-15T08:14:21.486Z,2.10
2023-02-15T08:16:58.847Z,2.10
2023-02-15T08:19:25.709Z,2.10
2023-02-15T08:22:13.171Z,2.10
2023-02-15T08:24:40.616Z,2.10
2023-02-15T08:27:08.594Z,2.20
2023-02-15T08:29:36.466Z,2.20
2023-02-15T08:32:06.370Z,2.30
2023-02-15T08:34:38.937Z,2.30
2023-02-15T08:37:07.199Z,2.40
2023-02-15T08:39:34.402Z,2.50
2023-02-15T08:42:01.568Z,2.50
2023-02-15T08:44:28.975Z,2.50
2023-02-15T08:46:55.935Z,2.50
2023-02-15T08:49:23.286Z,2.50
2023-02-15T08:51:50.563Z,2.60
2023-02-15T08:54:19.890Z,2.70
2023-02-15T08:56:47.131Z,2.80
2023-02-15T08:59:19.044Z,3.00
2023-02-15T09:01:46.930Z,3.20
2023-02-15T09:04:14.270Z,3.40
2023-02-15T09:06:42.294Z,3.70
2023-02-15T09:09:09.937Z,3.70
2023-02-15T09:11:39.099Z,4.00
2023-02-15T09:14:15.849Z,4.20
2023-02-15T09:16:47.860Z,4.30
2023-02-15T09:19:14.950Z,4.40
2023-02-15T09:21:45.063Z,4.50
2023-02-15T09:24:14.768Z,4.50
2023-02-15T09:26:43.630Z,4.50
2023-02-15T09:29:11.305Z,4.90
2023-02-15T09:31:45.364Z,5.00
2023-02-15T09:34:19.393Z,4.90
2023-02-15T09:36:47.072Z,5.00
2023-02-15T09:39:19.526Z,4.90
2023-02-15T09:42:20.553Z,5.00
2023-02-15T09:45:23.272Z,5.00
2023-02-15T09:48:15.017Z,5.20
2023-02-15T09:51:00.976Z,5.20
2023-02-15T09:53:30.959Z,5.30
2023-02-15T09:56:30.007Z,5.30
2023-02-15T09:59:12.313Z,5.50
2023-02-15T10:02:01.882Z,5.70
2023-02-15T10:04:51.595Z,6.00
2023-02-15T10:07:37.427Z,6.10
2023-02-15T10:10:16.734Z,6.20
2023-02-15T10:13:02.583Z,6.20
2023-02-15T10:15:45.159Z,6.40
2023-02-15T10:18:45.594Z,6.40
2023-02-15T10:21:42.611Z,6.50
2023-02-15T10:24:24.641Z,6.60
2023-02-15T10:26:51.606Z,6.60
2023-02-15T10:29:37.481Z,6.70
2023-02-15T10:32:14.682Z,6.70
2023-02-15T10:35:35.760Z,6.90
2023-02-15T10:38:45.598Z,7.00
2023-02-15T10:41:33.426Z,7.10
2023-02-15T10:44:12.415Z,7.10
2023-02-15T10:47:04.989Z,7.40
2023-02-15T10:49:48.035Z,7.40
2023-02-15T10:52:45.298Z,7.40
2023-02-15T10:55:42.335Z,7.60
2023-02-15T10:58:40.452Z,7.80
2023-02-15T11:01:43.113Z,7.90
2023-02-15T11:04:54.593Z,8.00
2023-02-15T11:07:34.717Z,8.10
2023-02-15T11:10:26.086Z,8.00
2023-02-15T11:12:54.192Z,8.00
2023-02-15T11:15:27.680Z,8.10
2023-02-15T11:18:06.965Z,8.10
2023-02-15T11:20:46.706Z,8.30
2023-02-15T11:23:19.442Z,8.50
2023-02-15T11:26:13.326Z,8.60
2023-02-15T11:29:24.190Z,8.80
2023-02-15T11:31:59.730Z,8.80
2023-02-15T11:34:35.936Z,9.00
2023-02-15T11:37:06.441Z,9.00
2023-02-15T11:39:33.401Z,9.00
2023-02-15T11:42:02.734Z,9.10
2023-02-15T11:44:36.932Z,9.00
2023-02-15T11:47:03.954Z,9.00
2023-02-15T11:49:33.210Z,9.00
2023-02-15T11:52:06.339Z,9.10
2023-02-15T11:54:36.620Z,9.20
2023-02-15T11:57:16.875Z,9.20
2023-02-15T11:59:50.129Z,9.30
2023-02-15T12:02:22.285Z,9.30
2023-02-15T12:04:55.306Z,9.20
2023-02-15T12:07:45.152Z,9.20
2023-02-15T12:10:33.470Z,9.20
2023-02-15T12:13:14.657Z,9.30
2023-02-15T12:15:50.266Z,9.30
2023-02-15T12:18:33.619Z,9.30
2023-02-15T12:21:12.869Z,9.30
2023-02-15T12:23:53.671Z,9.30
2023-02-15T12:26:33.290Z,9.50
2023-02-15T12:29:22.662Z,9.60
2023-02-15T12:31:51.851Z,9.60
2023-02-15T12:34:43.808Z,9.60
2023-02-15T12:37:24.288Z,9.60
2023-02-15T12:40:00.070Z,9.60
2023-02-15T12:42:30.187Z,9.60
2023-02-15T12:45:04.846Z,9.60
2023-02-15T12:47:33.489Z,9.70
2023-02-15T12:50:18.200Z,9.80
2023-02-15T12:53:03.705Z,9.80
2023-02-15T12:55:31.814Z,9.90
2023-02-15T12:58:08.957Z,9.80
2023-02-15T13:00:36.604Z,9.90
2023-02-15T13:03:04.325Z,10.00
2023-02-15T13:05:41.386Z,10.00
2023-02-15T13:08:13.828Z,10.20
2023-02-15T13:10:43.529Z,10.20
2023-02-15T13:13:11.991Z,10.30
2023-02-15T13:15:43.422Z,10.30
2023-02-15T13:18:46.584Z,10.40
2023-02-15T13:21:19.807Z,10.50
2023-02-15T13:23:54.739Z,10.60
2023-02-15T13:26:22.993Z,10.70
2023-02-15T13:28:53.007Z,10.90
2023-02-15T13:31:22.088Z,10.80
2023-02-15T13:33:54.247Z,10.90
2023-02-15T13:36:47.057Z,10.80
2023-02-15T13:39:28.544Z,10.80
2023-02-15T13:42:25.907Z,10.70
2023-02-15T13:45:11.858Z,10.70
2023-02-15T13:48:02.309Z,10.70
2023-02-15T13:50:48.006Z,10.60
2023-02-15T13:53:49.935Z,10.60
2023-02-15T13:56:29.396Z,10.60
2023-02-15T13:58:59.349Z,10.50
2023-02-15T14:01:47.850Z,10.50
2023-02-15T14:04:39.524Z,10.50
2023-02-15T14:07:12.295Z,10.50
2023-02-15T14:09:48.673Z,10.50
2023-02-15T14:12:27.668Z,10.60
2023-02-15T14:15:15.520Z,10.60
2023-02-15T14:17:54.516Z,10.60
2023-02-15T14:20:42.664Z,10.60
2023-02-15T14:23:37.209Z,10.60
2023-02-15T14:26:26.274Z,10.60
2023-02-15T14:29:02.209Z,10.60
2023-02-15T14:31:36.264Z,10.50
2023-02-15T14:34:05.061Z,10.50
2023-02-15T14:36:32.332Z,10.50
2023-02-15T14:39:36.857Z,10.50
2023-02-15T14:42:08.918Z,10.50
2023-02-15T14:44:39.230Z,10.50
2023-02-15T14:47:10.827Z,10.50
2023-02-15T14:49:39.374Z,10.50
2023-02-15T14:52:09.478Z,10.50
2023-02-15T14:54:36.255Z,10.50
2023-02-15T14:57:03.137Z,10.50
2023-02-15T14:59:53.488Z,10.50
2023-02-15T15:02:27.795Z,10.50
2023-02-15T15:05:18.061Z,10.40
2023-02-15T15:07:55.993Z,10.40
2023-02-15T15:10:22.768Z,10.40
2023-02-15T15:12:54.249Z,10.30
2023-02-15T15:15:33.223Z,10.30
2023-02-15T15:18:02.841Z,10.30
2023-02-15T15:20:50.967Z,10.30
2023-02-15T15:23:21.247Z,10.30
2023-02-15T15:26:16.822Z,10.20
2023-02-15T15:28:43.582Z,10.30
2023-02-15T15:31:22.584Z,10.30
2023-02-15T15:34:18.703Z,10.30
2023-02-15T15:36:45.517Z,10.20
2023-02-15T15:39:36.717Z,10.30
2023-02-15T15:42:41.109Z,10.20
2023-02-15T15:45:18.204Z,10.20
2023-02-15T15:48:07.829Z,10.10
2023-02-15T15:50:35.037Z,10.10
2023-02-15T15:53:02.444Z,10.10
2023-02-15T15:55:31.706Z,10.10
2023-02-15T15:58:04.127Z,10.00
2023-02-15T16:00:56.497Z,10.00
2023-02-15T16:03:25.559Z,10.00
2023-02-15T16:05:56.259Z,9.90
2023-02-15T16:08:37.552Z,9.90
2023-02-15T16:11:13.801Z,9.80
2023-02-15T16:13:42.428Z,9.80
2023-02-15T16:16:09.504Z,9.70
2023-02-15T16:18:39.829Z,9.60
2023-02-15T16:21:06.736Z,9.70
2023-02-15T16:24:00.932Z,9.70
2023-02-15T16:26:56.744Z,9.60
2023-02-15T16:29:31.870Z,9.50
2023-02-15T16:32:01.225Z,9.40
2023-02-15T16:34:29.203Z,9.30
2023-02-15T16:37:18.752Z,9.30
2023-02-15T16:39:46.817Z,9.20
2023-02-15T16:42:13.820Z,9.20
2023-02-15T16:44:41.813Z,9.20
2023-02-15T16:47:21.327Z,9.10
2023-02-15T16:49:49.513Z,9.00
2023-02-15T16:52:21.271Z,9.00
2023-02-15T16:54:51.309Z,9.00
2023-02-15T16:57:22.861Z,8.90
2023-02-15T16:59:51.319Z,9.00
2023-02-15T17:02:43.184Z,8.90
2023-02-15T17:05:11.137Z,8.80
2023-02-15T17:07:43.025Z,8.80
2023-02-15T17:10:32.881Z,8.80
2023-02-15T17:13:05.163Z,8.80
2023-02-15T17:15:40.600Z,8.80
2023-02-15T17:18:13.350Z,8.60
2023-02-15T17:20:42.735Z,8.60
2023-02-15T17:23:32.839Z,8.60
2023-02-15T17:26:00.396Z,8.60
2023-02-15T17:28:29.277Z,8.60
2023-02-15T17:30:56.454Z,8.50
2023-02-15T17:33:36.729Z,8.50
2023-02-15T17:36:16.964Z,8.50
2023-02-15T17:38:59.274Z,8.50
2023-02-15T17:41:29.453Z,8.50
2023-02-15T17:43:56.653Z,8.40
2023-02-15T17:46:23.813Z,8.40
2023-02-15T17:48:53.422Z,8.40
2023-02-15T17:51:20.660Z,8.30
2023-02-15T17:54:07.252Z,8.30
2023-02-15T17:56:35.023Z,8.30
2023-02-15T17:59:01.989Z,8.30
2023-02-15T18:01:47.839Z,8.30
2023-02-15T18:04:34.012Z,8.30
2023-02-15T18:07:19.482Z,8.30
2023-02-15T18:10:05.223Z,8.20
2023-02-15T18:12:36.737Z,8.20
2023-02-15T18:15:05.708Z,8.20
2023-02-15T18:17:41.064Z,8.20
2023-02-15T18:20:24.862Z,8.20
2023-02-15T18:22:51.833Z,8.20
2023-02-15T18:25:20.238Z,8.10
2023-02-15T18:27:47.455Z,8.10
2023-02-15T18:30:16.648Z,8.10
2023-02-15T18:32:44.353Z,8.10
2023-02-15T18:35:18.291Z,8.10
2023-02-15T18:37:45.222Z,8.10
2023-02-15T18:40:16.933Z,8.10
2023-02-15T18:42:48.057Z,8.00
2023-02-15T18:45:19.288Z,8.00
2023-02-15T18:47:46.677Z,8.00
2023-02-15T18:50:15.423Z,7.90
2023-02-15T18:52:42.799Z,7.90
2023-02-15T18:55:23.962Z,7.90
2023-02-15T18:57:52.126Z,7.80
2023-02-15T19:00:32.145Z,7.80
2023-02-15T19:02:59.794Z,7.80
2023-02-15T19:05:30.074Z,7.80
2023-02-15T19:07:57.830Z,7.80
2023-02-15T19:10:26.547Z,7.80
2023-02-15T19:12:54.369Z,7.90
2023-02-15T19:15:25.989Z,7.80
2023-02-15T19:17:53.727Z,7.90
2023-02-15T19:20:22.898Z,7.80
2023-02-15T19:22:51.198Z,7.80
2023-02-15T19:25:25.371Z,7.80
2023-02-15T19:27:52.958Z,7.70
2023-02-15T19:30:22.331Z,7.80
2023-02-15T19:32:49.360Z,7.70
2023-02-15T19:35:20.510Z,7.70
2023-02-15T19:37:51.844Z,7.70
2023-02-15T19:40:30.131Z,7.70
2023-02-15T19:42:57.497Z,7.70
2023-02-15T19:45:26.554Z,7.80
2023-02-15T19:47:55.203Z,7.80
2023-02-15T19:50:24.077Z,7.80
2023-02-15T19:52:51.135Z,7.80
2023-02-15T19:55:29.128Z,7.70
2023-02-15T19:57:57.052Z,7.60
2023-02-15T20:00:30.927Z,7.50
2023-02-15T20:02:59.275Z,7.50
2023-02-15T20:05:31.489Z,7.40
2023-02-15T20:08:01.167Z,7.30
2023-02-15T20:10:30.434Z,7.30
2023-02-15T20:12:57.878Z,7.40
2023-02-15T20:15:27.490Z,7.40
2023-02-15T20:17:56.395Z,7.40
2023-02-15T20:20:24.448Z,7.40
2023-02-15T20:22:51.707Z,7.50
2023-02-15T20:25:27.700Z,7.50
2023-02-15T20:27:55.004Z,7.50
2023-02-15T20:30:28.218Z,7.50
2023-02-15T20:32:55.380Z,7.60
2023-02-15T20:35:24.705Z,7.60
2023-02-15T20:37:53.550Z,7.70
2023-02-15T20:40:21.355Z,7.70
2023-02-15T20:42:48.471Z,7.60
2023-02-15T20:45:25.834Z,7.70
2023-02-15T20:47:53.113Z,7.60
2023-02-15T20:50:22.682Z,7.60
2023-02-15T20:52:51.104Z,7.50
2023-02-15T20:55:23.340Z,7.60
2023-02-15T20:57:50.664Z,7.50
2023-02-15T21:00:19.277Z,7.60
2023-02-15T21:02:47.983Z,7.60
2023-02-15T21:05:16.993Z,7.50
2023-02-15T21:07:43.900Z,7.50
2023-02-15T21:10:18.203Z,7.40
2023-02-15T21:12:45.290Z,7.40
2023-02-15T21:15:35.877Z,7.40
2023-02-15T21:18:05.094Z,7.40
2023-02-15T21:20:32.693Z,7.40
2023-02-15T21:23:01.248Z,7.40
2023-02-15T21:25:34.663Z,7.30
2023-02-15T21:28:01.687Z,7.30
2023-02-15T21:30:29.007Z,7.40
2023-02-15T21:32:55.984Z,7.40
2023-02-15T21:35:22.931Z,7.40
2023-02-15T21:37:50.781Z,7.30
2023-02-15T21:40:23.649Z,7.30
2023-02-15T21:43:09.064Z,7.30
2023-02-15T21:45:54.566Z,7.30
2023-02-15T21:48:22.280Z,7.30
2023-02-15T21:51:10.923Z,7.30
2023-02-15T21:53:42.566Z,7.40
2023-02-15T21:56:11.233Z,7.30
2023-02-15T21:58:38.153Z,7.30
2023-02-15T22:01:05.809Z,7.30
2023-02-15T22:03:35.460Z,7.30
2023-02-15T22:06:02.575Z,7.30
2023-02-15T22:08:29.651Z,7.30
2023-02-15T22:10:56.651Z,7.30
2023-02-15T22:13:31.683Z,7.20
2023-02-15T22:16:02.269Z,7.20
2023-02-15T22:18:33.612Z,7.20
2023-02-15T22:21:01.427Z,7.20
2023-02-15T22:23:31.191Z,7.10
2023-02-15T22:26:21.167Z,7.10
2023-02-15T22:28:48.102Z,7.10
2023-02-15T22:31:18.667Z,7.10
2023-02-15T22:33:45.696Z,7.10
2023-02-15T22:36:24.541Z,7.10
2023-02-15T22:38:51.597Z,7.10
2023-02-15T22:41:19.168Z,7.10
2023-02-15T22:43:47.513Z,7.10
2023-02-15T22:46:19.343Z,7.10
2023-02-15T22:48:48.354Z,7.00
2023-02-15T22:51:21.352Z,7.10
2023-02-15T22:53:54.611Z,7.10
2023-02-15T22:56:35.177Z,7.10
2023-02-15T22:59:10.465Z,7.00
2023-02-15T23:01:38.716Z,7.00
2023-02-15T23:04:06.019Z,6.90
2023-02-15T23:06:34.655Z,7.00
2023-02-15T23:09:01.843Z,7.00
2023-02-15T23:11:29.247Z,6.90
2023-02-15T23:13:56.400Z,6.90
2023-02-15T23:16:23.449Z,6.80
2023-02-15T23:18:50.553Z,6.90
2023-02-15T23:21:30.563Z,6.80
2023-02-15T23:24:24.474Z,6.80
2023-02-15T23:26:51.551Z,6.80
2023-02-15T23:29:22.126Z,6.80
2023-02-15T23:31:52.324Z,6.80
2023-02-15T23:34:22.836Z,6.70
2023-02-15T23:36:49.900Z,6.70
2023-02-15T23:39:42.820Z,6.70
2023-02-15T23:42:31.673Z,6.70
2023-02-15T23:44:59.172Z,6.70
2023-02-15T23:47:53.084Z,6.70
2023-02-15T23:50:25.243Z,6.60
2023-02-15T23:52:52.472Z,6.60
2023-02-15T23:55:19.775Z,6.60
2023-02-15T23:57:47.461Z,6.50
